Pagina principale
METAR-TAF:

METAR-TAF

Aeroporti :

Aeroporto di Varsavia-Chopin

Varsavia, Polonia

latitudine: 52-10N, longitudine: 020-58E, altezza: 106 m

Osservazione

Il bollettino è stato emesso 26 minuti fa, alle 22:30 UTC
Vento 4 kt da nord-ovest
Temperature 18°C
Umidità 83%
Pressione 1019 hPa
Visibilità 10 km o più
nessuna nube inferiore a 1500 m e nessun cumulonembo

METAR: EPWA 152230Z 31004KT CAVOK 18/15 Q1019 NOSIG

Ora: 00:56 (22:56 UTC)

Previsione

Il bollettino è stato emesso 2 ore e 26 minuti fa, alle 20:30 UTC
Previsione valida dal 15 alle 21 UTC al 16 alle 21 UTC
Vento 5 kt da ovest/nord-ovest
Visibilità 10 km o più
nessuna nube inferiore a 1500 m e nessun cumulonembo
Probabilità 30%
dal 16 alle 02 UTC al 16 alle 05 UTC
Visibilità: 4500 m
foschia

TAF: EPWA 152030Z 1521/1621 30005KT CAVOK PROB30 1602/1605 4500 BR

Osservazioni e previsioni meteorologiche di più di 4000 aeroporti (messaggi METAR e TAF).

Le stazioni disponibili sono rappresentate dai dischi gialli e rossi sulla carta.

Puntare il mouse per vedere il nome della stazione.

Clicca sopra per visualizzare le osservazioni e previsioni meteorologiche.

Per cambiare la mappa : fare clic sui pulsanti verdi con una croce nera per ingrandire, il pulsante verde con un trattino per diminuire, o sulla freccia verde per le mappe adiacenti.


METAR-TAF: